createdAt,value
2023-05-02T00:02:18.650Z,13.63
2023-05-02T00:05:33.663Z,13.67
2023-05-02T00:09:03.087Z,13.72
2023-05-02T00:12:32.617Z,13.78
2023-05-02T00:15:51.478Z,13.86
2023-05-02T00:19:20.840Z,13.92
2023-05-02T00:22:50.629Z,13.97
2023-05-02T00:26:19.385Z,14.02
2023-05-02T00:29:48.735Z,14.08
2023-05-02T00:33:11.060Z,14.12
2023-05-02T00:36:40.100Z,14.14
2023-05-02T00:40:09.131Z,14.17
2023-05-02T00:43:31.520Z,14.18
2023-05-02T00:47:00.674Z,14.19
2023-05-02T00:50:29.659Z,14.20
2023-05-02T00:53:42.901Z,14.23
2023-05-02T00:57:12.212Z,14.24
2023-05-02T01:00:34.015Z,14.25
2023-05-02T01:04:03.070Z,14.24
2023-05-02T01:07:44.807Z,14.23
2023-05-02T01:11:19.605Z,14.22
2023-05-02T01:14:48.855Z,14.20
2023-05-02T01:18:17.784Z,14.17
2023-05-02T01:21:08.873Z,14.12
2023-05-02T01:25:00.514Z,14.06
2023-05-02T01:28:32.951Z,13.98
2023-05-02T01:31:43.264Z,13.90
2023-05-02T01:38:18.476Z,13.70
2023-05-02T01:41:47.414Z,13.61
2023-05-02T01:45:16.817Z,13.52
2023-05-02T01:48:27.298Z,13.42
2023-05-02T01:51:56.539Z,13.34
2023-05-02T01:55:24.926Z,13.25
2023-05-02T01:58:54.536Z,13.16
2023-05-02T02:02:23.812Z,13.06
2023-05-02T02:05:36.857Z,12.97
2023-05-02T02:08:46.010Z,12.88
2023-05-02T02:12:15.314Z,12.81
2023-05-02T02:15:46.102Z,12.76
2023-05-02T02:19:15.533Z,12.71
2023-05-02T02:22:44.397Z,12.64
2023-05-02T02:26:13.792Z,12.61
2023-05-02T02:29:43.115Z,12.58
2023-05-02T02:33:12.560Z,12.56
2023-05-02T02:36:25.131Z,12.52
2023-05-02T02:40:00.258Z,12.50
2023-05-02T02:43:34.241Z,12.49
2023-05-02T02:47:09.710Z,12.47
2023-05-02T02:50:57.356Z,12.44
2023-05-02T02:54:42.597Z,12.42
2023-05-02T02:58:38.732Z,12.41
2023-05-02T03:02:07.971Z,12.39
2023-05-02T03:05:37.458Z,12.36
2023-05-02T03:08:32.897Z,12.34
2023-05-02T03:12:03.044Z,12.36
2023-05-02T03:15:32.465Z,12.37
2023-05-02T03:19:01.177Z,12.41
2023-05-02T03:22:31.206Z,12.48
2023-05-02T03:25:40.946Z,12.56
2023-05-02T03:29:01.442Z,12.59
2023-05-02T03:32:30.225Z,12.64
2023-05-02T03:35:59.071Z,12.70
2023-05-02T03:39:28.810Z,12.74
2023-05-02T03:42:30.972Z,12.78
2023-05-02T03:46:00.705Z,12.82
2023-05-02T03:49:21.784Z,12.84
2023-05-02T03:52:52.757Z,12.83
2023-05-02T03:56:23.416Z,12.83
2023-05-02T03:59:36.736Z,12.84
2023-05-02T04:02:58.493Z,12.83
2023-05-02T04:06:11.202Z,12.84
2023-05-02T04:09:30.436Z,12.84
2023-05-02T04:13:00.797Z,12.84
2023-05-02T04:16:14.246Z,12.88
2023-05-02T04:19:43.707Z,12.94
2023-05-02T04:22:48.585Z,12.97
2023-05-02T04:26:17.628Z,12.99
2023-05-02T04:29:22.034Z,12.99
2023-05-02T04:32:11.517Z,13.02
2023-05-02T04:35:33.748Z,13.04
2023-05-02T04:38:45.886Z,13.02
2023-05-02T04:41:24.220Z,13.01
2023-05-02T04:44:44.177Z,12.99
2023-05-02T04:47:57.200Z,12.93
2023-05-02T04:50:27.216Z,12.87
2023-05-02T04:53:56.852Z,12.84
2023-05-02T04:57:16.789Z,12.77
2023-05-02T05:00:29.361Z,12.71
2023-05-02T05:03:58.583Z,12.63
2023-05-02T05:07:27.585Z,12.55
2023-05-02T05:10:40.162Z,12.49
2023-05-02T05:13:28.531Z,12.45
2023-05-02T05:16:48.741Z,12.41
2023-05-02T05:20:16.774Z,12.38
2023-05-02T05:23:46.261Z,12.34
2023-05-02T05:27:15.576Z,12.34
2023-05-02T05:30:18.288Z,12.31
2023-05-02T05:33:32.560Z,12.27
2023-05-02T05:36:41.374Z,12.26
2023-05-02T05:40:00.759Z,12.25
2023-05-02T05:43:22.231Z,12.24
2023-05-02T05:46:41.530Z,12.23
2023-05-02T05:49:41.650Z,12.22
2023-05-02T05:52:51.745Z,12.21
2023-05-02T05:56:04.219Z,12.20
2023-05-02T05:59:12.907Z,12.18
2023-05-02T06:02:14.547Z,12.17
2023-05-02T06:05:03.720Z,12.17
2023-05-02T06:08:33.185Z,12.18
2023-05-02T06:11:22.194Z,12.16
2023-05-02T06:14:51.286Z,12.14
2023-05-02T06:17:40.647Z,12.12
2023-05-02T06:20:35.561Z,12.11
2023-05-02T06:23:50.999Z,12.12
2023-05-02T06:26:29.027Z,12.12
2023-05-02T06:29:04.711Z,12.12
2023-05-02T06:32:11.435Z,12.12
2023-05-02T06:35:22.957Z,12.16
2023-05-02T06:37:54.979Z,12.20
2023-05-02T06:41:24.390Z,12.25
2023-05-02T06:43:53.823Z,12.32
2023-05-02T06:47:13.485Z,12.37
2023-05-02T06:50:25.975Z,12.44
2023-05-02T06:53:14.684Z,12.51
2023-05-02T06:56:44.132Z,12.58
2023-05-02T06:59:46.614Z,12.62
2023-05-02T07:03:16.036Z,12.64
2023-05-02T07:06:45.414Z,12.67
2023-05-02T07:10:00.716Z,12.71
2023-05-02T07:13:30.450Z,12.75
2023-05-02T07:16:59.749Z,12.77
2023-05-02T07:20:22.253Z,12.80
2023-05-02T07:23:52.610Z,12.84
2023-05-02T07:27:02.255Z,12.86
2023-05-02T07:30:31.876Z,12.89
2023-05-02T07:34:01.181Z,12.92
2023-05-02T07:37:14.116Z,12.93
2023-05-02T07:40:23.436Z,12.93
2023-05-02T07:43:35.579Z,12.96
2023-05-02T07:46:30.556Z,13.01
2023-05-02T07:49:40.127Z,13.05
2023-05-02T07:52:33.221Z,13.09
2023-05-02T07:56:02.686Z,13.11
2023-05-02T07:59:14.946Z,13.13
2023-05-02T08:02:00.434Z,13.13
2023-05-02T08:04:29.736Z,13.10
2023-05-02T08:07:23.302Z,13.08
2023-05-02T08:10:32.436Z,13.04
2023-05-02T08:14:01.975Z,13.00
2023-05-02T08:17:31.425Z,12.93
2023-05-02T08:20:50.996Z,12.85
2023-05-02T08:24:21.156Z,12.79
2023-05-02T08:27:40.799Z,12.74
2023-05-02T08:31:10.386Z,12.69
2023-05-02T08:34:04.524Z,12.62
2023-05-02T08:37:34.068Z,12.58
2023-05-02T08:41:03.375Z,12.53
2023-05-02T08:44:33.704Z,12.45
2023-05-02T08:48:02.989Z,12.42
2023-05-02T08:51:32.776Z,12.40
2023-05-02T08:54:41.864Z,12.34
2023-05-02T08:58:00.535Z,12.31
2023-05-02T09:01:30.151Z,12.29
2023-05-02T09:05:00.273Z,12.28
2023-05-02T09:08:21.825Z,12.28
2023-05-02T09:11:52.661Z,12.28
2023-05-02T09:15:12.379Z,12.26
2023-05-02T09:18:44.408Z,12.24
2023-05-02T09:22:20.060Z,12.20
2023-05-02T09:25:49.380Z,12.19
2023-05-02T09:29:24.693Z,12.19
2023-05-02T09:32:53.916Z,12.19
2023-05-02T09:36:24.909Z,12.17
2023-05-02T09:39:44.535Z,12.16
2023-05-02T09:43:04.371Z,12.16
2023-05-02T09:46:40.228Z,12.14
2023-05-02T09:50:21.687Z,12.13
2023-05-02T09:53:41.655Z,12.14
2023-05-02T09:56:54.200Z,12.16
2023-05-02T10:00:23.411Z,12.18
2023-05-02T10:03:44.108Z,12.21
2023-05-02T10:07:13.432Z,12.24
2023-05-02T10:10:42.713Z,12.25
2023-05-02T10:14:12.179Z,12.28
2023-05-02T10:17:35.646Z,12.28
2023-05-02T10:21:04.850Z,12.32
2023-05-02T10:24:37.040Z,12.33
2023-05-02T10:28:06.403Z,12.33
2023-05-02T10:31:26.098Z,12.34
2023-05-02T10:34:55.916Z,12.36
2023-05-02T10:38:15.108Z,12.37
2023-05-02T10:41:34.788Z,12.35
2023-05-02T10:45:16.243Z,12.37
2023-05-02T10:48:56.865Z,12.38
2023-05-02T10:52:31.804Z,12.38
2023-05-02T10:56:07.635Z,12.37
2023-05-02T10:59:36.874Z,12.40
2023-05-02T11:02:47.288Z,12.45
2023-05-02T11:06:11.866Z,12.49
2023-05-02T11:09:56.544Z,12.56
2023-05-02T11:13:27.612Z,12.60
2023-05-02T11:16:45.686Z,12.65
2023-05-02T11:20:12.249Z,12.68
2023-05-02T11:23:44.107Z,12.70
2023-05-02T11:26:56.145Z,12.70
2023-05-02T11:30:19.190Z,12.70
2023-05-02T11:33:12.046Z,12.69
2023-05-02T11:35:44.000Z,12.67
2023-05-02T11:38:18.534Z,12.65
2023-05-02T11:41:25.417Z,12.62
2023-05-02T11:44:54.814Z,12.57
2023-05-02T11:47:48.734Z,12.52
2023-05-02T11:51:24.539Z,12.48
2023-05-02T11:54:15.037Z,12.43
2023-05-02T11:57:44.300Z,12.39
2023-05-02T12:01:13.647Z,12.33
2023-05-02T12:04:43.353Z,12.28
2023-05-02T12:08:27.754Z,12.25
2023-05-02T12:11:57.224Z,12.23
2023-05-02T12:15:27.582Z,12.21
2023-05-02T12:18:56.825Z,12.18
2023-05-02T12:22:00.547Z,12.14
2023-05-02T12:25:29.534Z,12.12
2023-05-02T12:29:05.189Z,12.10
2023-05-02T12:32:32.540Z,12.06
2023-05-02T12:35:53.846Z,12.05
2023-05-02T12:38:26.831Z,12.03
2023-05-02T12:41:00.020Z,12.01
2023-05-02T12:43:44.357Z,12.00
2023-05-02T12:46:30.267Z,11.97
2023-05-02T12:49:21.972Z,11.95
2023-05-02T12:52:51.444Z,11.92
2023-05-02T12:55:59.856Z,11.89
2023-05-02T12:58:31.874Z,11.87
2023-05-02T13:01:34.383Z,11.85
2023-05-02T13:05:04.817Z,11.84
2023-05-02T13:07:54.587Z,11.82
2023-05-02T13:11:23.829Z,11.81
2023-05-02T13:14:52.929Z,11.80
2023-05-02T13:18:22.505Z,11.82
2023-05-02T13:21:51.898Z,11.88
2023-05-02T13:25:14.677Z,11.95
2023-05-02T13:28:38.880Z,12.01
2023-05-02T13:32:07.892Z,12.07
2023-05-02T13:35:37.538Z,12.13
2023-05-02T13:39:06.762Z,12.20
2023-05-02T13:42:36.186Z,12.26
2023-05-02T13:45:07.608Z,12.33
2023-05-02T13:47:36.394Z,12.37
2023-05-02T13:50:06.324Z,12.42
2023-05-02T13:52:35.081Z,12.49
2023-05-02T13:55:04.228Z,12.55
2023-05-02T13:57:33.456Z,12.62
2023-05-02T14:00:15.429Z,12.68
2023-05-02T14:02:47.860Z,12.73
2023-05-02T14:05:19.727Z,12.77
2023-05-02T14:07:51.967Z,12.82
2023-05-02T14:10:21.279Z,12.86
2023-05-02T14:12:51.144Z,12.90
2023-05-02T14:15:22.022Z,12.93
2023-05-02T14:18:51.190Z,12.96
2023-05-02T14:22:20.091Z,13.00
2023-05-02T14:25:32.747Z,13.03
2023-05-02T14:29:02.349Z,13.04
2023-05-02T14:32:31.842Z,13.06
2023-05-02T14:35:05.400Z,13.12
2023-05-02T14:38:34.559Z,13.16
2023-05-02T14:42:04.170Z,13.18
2023-05-02T14:45:33.583Z,13.17
2023-05-02T14:49:02.344Z,13.15
2023-05-02T14:52:10.789Z,13.13
2023-05-02T14:55:16.733Z,13.08
2023-05-02T14:58:24.589Z,13.04
2023-05-02T15:01:42.637Z,13.02
2023-05-02T15:04:33.535Z,12.98
2023-05-02T15:08:01.820Z,12.97
2023-05-02T15:11:31.064Z,12.94
2023-05-02T15:15:00.421Z,12.94
2023-05-02T15:18:29.587Z,12.90
2023-05-02T15:21:53.172Z,12.85
2023-05-02T15:25:21.828Z,12.81
2023-05-02T15:28:51.149Z,12.80
2023-05-02T15:31:40.804Z,12.78
2023-05-02T15:35:11.235Z,12.78
2023-05-02T15:38:40.729Z,12.79
2023-05-02T15:41:53.076Z,12.80
2023-05-02T15:45:21.073Z,12.80
2023-05-02T15:48:18.993Z,12.79
2023-05-02T15:51:41.565Z,12.79
2023-05-02T15:54:38.227Z,12.78
2023-05-02T15:58:07.746Z,12.78
2023-05-02T16:01:15.960Z,12.78
2023-05-02T16:04:27.011Z,12.78
2023-05-02T16:07:36.391Z,12.77
2023-05-02T16:11:05.614Z,12.77
2023-05-02T16:13:55.363Z,12.75
2023-05-02T16:17:15.730Z,12.73
2023-05-02T16:20:45.016Z,12.73
2023-05-02T16:24:08.454Z,12.72
2023-05-02T16:27:38.407Z,12.70
2023-05-02T16:31:07.725Z,12.70
2023-05-02T16:34:11.939Z,12.69
2023-05-02T16:37:22.667Z,12.69
2023-05-02T16:40:51.836Z,12.72
2023-05-02T16:44:21.509Z,12.77
2023-05-02T16:47:51.263Z,12.83
2023-05-02T16:51:20.121Z,12.90
2023-05-02T16:54:48.953Z,13.00
2023-05-02T16:57:23.269Z,13.09
2023-05-02T16:59:56.171Z,13.18
2023-05-02T17:03:27.303Z,13.25
2023-05-02T17:06:35.566Z,13.34
2023-05-02T17:10:04.827Z,13.40
2023-05-02T17:12:59.617Z,13.47
2023-05-02T17:16:02.755Z,13.52
2023-05-02T17:18:38.218Z,13.58
2023-05-02T17:21:29.039Z,13.63
2023-05-02T17:24:27.493Z,13.68
2023-05-02T17:26:59.859Z,13.72
2023-05-02T17:29:49.205Z,13.75
2023-05-02T17:33:19.329Z,13.80
2023-05-02T17:36:31.752Z,13.85
2023-05-02T17:40:02.268Z,13.90
2023-05-02T17:43:31.740Z,13.93
2023-05-02T17:46:38.582Z,13.98
2023-05-02T17:50:08.527Z,14.02
2023-05-02T17:53:37.895Z,14.07
2023-05-02T17:57:07.373Z,14.12
2023-05-02T18:00:37.132Z,14.17
2023-05-02T18:04:06.758Z,14.21
2023-05-02T18:07:26.085Z,14.24
2023-05-02T18:10:55.032Z,14.27
2023-05-02T18:14:24.566Z,14.31
2023-05-02T18:17:54.027Z,14.33
2023-05-02T18:21:05.502Z,14.36
2023-05-02T18:24:34.894Z,14.37
2023-05-02T18:28:04.774Z,14.38
2023-05-02T18:31:34.544Z,14.38
2023-05-02T18:35:04.711Z,14.40
2023-05-02T18:37:36.607Z,14.43
2023-05-02T18:41:05.937Z,14.47
2023-05-02T18:44:35.434Z,14.51
2023-05-02T18:47:44.490Z,14.58
2023-05-02T18:51:14.046Z,14.64
2023-05-02T18:54:42.278Z,14.69
2023-05-02T18:58:11.643Z,14.76
2023-05-02T19:01:23.154Z,14.85
2023-05-02T19:04:53.479Z,14.88
2023-05-02T19:08:13.543Z,14.93
2023-05-02T19:11:43.050Z,14.96
2023-05-02T19:14:52.722Z,14.99
2023-05-02T19:18:21.954Z,15.00
2023-05-02T19:21:51.312Z,15.02
2023-05-02T19:25:04.603Z,15.04
2023-05-02T19:28:34.277Z,15.07
2023-05-02T19:32:04.487Z,15.11
2023-05-02T19:35:34.421Z,15.18
2023-05-02T19:38:48.462Z,15.22
2023-05-02T19:42:18.834Z,15.29
2023-05-02T19:45:47.736Z,15.37
2023-05-02T19:49:16.533Z,15.45
2023-05-02T19:52:18.555Z,15.55
2023-05-02T19:55:47.909Z,15.62
2023-05-02T19:58:42.656Z,15.68
2023-05-02T20:02:11.894Z,15.72
2023-05-02T20:05:42.065Z,15.79
2023-05-02T20:09:11.522Z,15.86
2023-05-02T20:12:24.312Z,15.92
2023-05-02T20:15:23.413Z,15.99
2023-05-02T20:18:52.814Z,16.06
2023-05-02T20:22:23.526Z,16.15
2023-05-02T20:25:40.328Z,16.21
2023-05-02T20:29:10.262Z,16.27
2023-05-02T20:32:10.829Z,16.34
2023-05-02T20:35:22.122Z,16.40
2023-05-02T20:38:44.522Z,16.47
2023-05-02T20:42:13.240Z,16.55
2023-05-02T20:45:36.985Z,16.60
2023-05-02T20:48:56.352Z,16.68
2023-05-02T20:52:25.430Z,16.75
2023-05-02T20:55:19.390Z,16.82
2023-05-02T20:57:52.250Z,16.85
2023-05-02T21:01:22.115Z,16.87
2023-05-02T21:04:53.246Z,16.88
2023-05-02T21:08:22.186Z,16.93
2023-05-02T21:11:37.423Z,16.85
2023-05-02T21:14:52.255Z,16.76
2023-05-02T21:17:51.007Z,16.66
2023-05-02T21:21:20.409Z,16.58
2023-05-02T21:24:50.016Z,16.51
2023-05-02T21:28:01.984Z,16.47
2023-05-02T21:31:31.458Z,16.43
2023-05-02T21:34:50.827Z,16.39
2023-05-02T21:37:48.789Z,16.37
2023-05-02T21:40:29.875Z,16.39
2023-05-02T21:43:58.842Z,16.39
2023-05-02T21:47:28.512Z,16.42
2023-05-02T21:50:58.416Z,16.44
2023-05-02T21:54:27.854Z,16.52
2023-05-02T21:57:57.368Z,16.60
2023-05-02T22:01:27.003Z,16.69
2023-05-02T22:04:39.651Z,16.80
2023-05-02T22:08:09.569Z,16.92
2023-05-02T22:11:25.555Z,17.04
2023-05-02T22:14:55.521Z,17.17
2023-05-02T22:18:25.407Z,17.29
2023-05-02T22:21:55.663Z,17.40
2023-05-02T22:25:25.289Z,17.50
2023-05-02T22:28:54.038Z,17.60
2023-05-02T22:32:23.203Z,17.70
2023-05-02T22:35:52.657Z,17.77
2023-05-02T22:39:00.787Z,17.81
2023-05-02T22:42:30.515Z,17.85
2023-05-02T22:46:00.893Z,17.86
2023-05-02T22:49:10.729Z,17.87
2023-05-02T22:52:40.654Z,17.89
2023-05-02T22:56:00.233Z,17.89
2023-05-02T22:59:29.167Z,17.93
2023-05-02T23:02:58.656Z,17.95
2023-05-02T23:06:21.184Z,17.95
2023-05-02T23:09:50.896Z,17.91
2023-05-02T23:13:20.261Z,17.91
2023-05-02T23:16:34.807Z,17.91
2023-05-02T23:20:04.301Z,17.91
2023-05-02T23:23:33.883Z,17.90
2023-05-02T23:27:02.948Z,17.88
2023-05-02T23:30:25.125Z,17.84
2023-05-02T23:33:54.749Z,17.81
2023-05-02T23:37:23.865Z,17.80
2023-05-02T23:40:52.619Z,17.82
2023-05-02T23:44:14.446Z,17.83
2023-05-02T23:47:44.080Z,17.85
2023-05-02T23:51:12.968Z,17.85
2023-05-02T23:54:42.866Z,17.83
2023-05-02T23:58:12.637Z,17.77
